Time;durP1;ratioP1;P1;durP2;ratioP2;P2;SDS_P1;SDS_P2;PMS_P1;PMS_P2;Temp;Humidity;BMP_temperature;BMP_pressure;BME280_temperature;BME280_humidity;BME280_pressure;Samples;Min_cycle;Max_cycle;Signal;HPM_P1;HPM_P2
2023/12/02 00:00:29;;;;;;;2.35;1.10;;;;;;;;;;5041482;28;20048;-56
2023/12/02 00:02:54;;;;;;;2.00;0.98;;;;;;;;;;5040529;28;20414;-57
2023/12/02 00:05:19;;;;;;;2.00;1.05;;;;;;;;;;5031977;28;20037;-57
2023/12/02 00:07:44;;;;;;;1.40;1.00;;;;;;;;;;5045178;28;20108;-57
2023/12/02 00:10:10;;;;;;;2.08;1.17;;;;;;;;;;5043151;28;20021;-58
2023/12/02 00:12:36;;;;;;;2.08;0.93;;;;;;;;;;5044719;28;20017;-56
2023/12/02 00:15:01;;;;;;;2.55;1.10;;;;;;;;;;5043384;28;20017;-57
2023/12/02 00:17:26;;;;;;;2.17;1.10;;;;;;;;;;5040777;28;20025;-57
2023/12/02 00:19:51;;;;;;;1.23;0.90;;;;;;;;;;5039299;28;20525;-56
2023/12/02 00:22:17;;;;;;;1.90;1.10;;;;;;;;;;5040647;28;20029;-56
2023/12/02 00:24:42;;;;;;;1.70;0.95;;;;;;;;;;5043483;28;20021;-56
2023/12/02 00:27:07;;;;;;;1.35;1.00;;;;;;;;;;5041624;28;20033;-57
2023/12/02 00:29:33;;;;;;;1.80;0.82;;;;;;;;;;5042909;28;20278;-57
2023/12/02 00:31:58;;;;;;;1.85;0.93;;;;;;;;;;5039574;28;20113;-56
2023/12/02 00:34:23;;;;;;;2.30;0.93;;;;;;;;;;5040154;28;20029;-56
2023/12/02 00:36:49;;;;;;;1.92;1.00;;;;;;;;;;5042012;28;20021;-57
2023/12/02 00:39:14;;;;;;;1.73;0.80;;;;;;;;;;5040234;28;20029;-58
2023/12/02 00:41:40;;;;;;;1.35;0.90;;;;;;;;;;5039817;28;20108;-58
2023/12/02 00:44:05;;;;;;;2.20;1.00;;;;;;;;;;5043125;28;20025;-56
2023/12/02 00:46:30;;;;;;;1.90;1.05;;;;;;;;;;5043374;28;20021;-57
2023/12/02 00:48:55;;;;;;;1.60;0.95;;;;;;;;;;5043491;28;20331;-57
2023/12/02 00:51:21;;;;;;;2.22;1.00;;;;;;;;;;5040730;28;20402;-57
2023/12/02 00:53:46;;;;;;;1.95;0.90;;;;;;;;;;5042365;28;20024;-57
2023/12/02 00:56:11;;;;;;;1.55;1.00;;;;;;;;;;5042864;28;20048;-58
2023/12/02 00:58:37;;;;;;;1.33;0.90;;;;;;;;;;5041940;28;20455;-58
2023/12/02 01:01:02;;;;;;;1.63;1.08;;;;;;;;;;5042868;28;20055;-58
2023/12/02 01:03:27;;;;;;;1.35;1.00;;;;;;;;;;5041833;28;20031;-57
2023/12/02 01:05:52;;;;;;;1.83;1.00;;;;;;;;;;5035114;28;20052;-57
2023/12/02 01:08:18;;;;;;;2.17;0.90;;;;;;;;;;5041159;28;20028;-57
2023/12/02 01:10:43;;;;;;;2.05;0.98;;;;;;;;;;5043030;28;20535;-57
2023/12/02 01:13:08;;;;;;;1.83;1.08;;;;;;;;;;5042637;28;20021;-57
2023/12/02 01:15:34;;;;;;;1.63;0.98;;;;;;;;;;5039710;28;20115;-57
2023/12/02 01:17:59;;;;;;;1.98;0.80;;;;;;;;;;5042359;28;20438;-57
2023/12/02 01:20:24;;;;;;;1.90;1.10;;;;;;;;;;5040872;28;20041;-57
2023/12/02 01:22:49;;;;;;;1.45;0.90;;;;;;;;;;5041765;28;20071;-57
2023/12/02 01:25:15;;;;;;;1.73;1.02;;;;;;;;;;5039671;28;20494;-57
2023/12/02 01:27:40;;;;;;;1.40;1.00;;;;;;;;;;5040331;28;20028;-57
2023/12/02 01:30:06;;;;;;;1.80;1.00;;;;;;;;;;5040467;28;20024;-57
2023/12/02 01:32:31;;;;;;;1.52;0.88;;;;;;;;;;5041063;28;20013;-57
2023/12/02 01:34:56;;;;;;;1.50;0.90;;;;;;;;;;5040805;28;20039;-57
2023/12/02 01:37:22;;;;;;;1.45;0.90;;;;;;;;;;5041940;28;20479;-57
2023/12/02 01:39:47;;;;;;;1.38;0.98;;;;;;;;;;5040706;28;20033;-57
2023/12/02 01:42:12;;;;;;;1.83;1.10;;;;;;;;;;5039974;28;20029;-57
2023/12/02 01:44:38;;;;;;;1.73;0.95;;;;;;;;;;5041715;28;20028;-57
2023/12/02 01:47:04;;;;;;;1.88;1.13;;;;;;;;;;5041338;28;20537;-57
2023/12/02 01:49:29;;;;;;;2.13;1.00;;;;;;;;;;5040828;28;20032;-57
2023/12/02 01:51:54;;;;;;;2.28;0.90;;;;;;;;;;5039786;28;20514;-57
2023/12/02 01:54:20;;;;;;;1.42;0.80;;;;;;;;;;5040432;28;20045;-58
2023/12/02 01:56:46;;;;;;;2.20;1.02;;;;;;;;;;5040926;28;20040;-57
2023/12/02 01:59:11;;;;;;;1.38;0.90;;;;;;;;;;5036918;28;20495;-55
2023/12/02 02:01:36;;;;;;;2.28;0.80;;;;;;;;;;5038844;28;20122;-57
2023/12/02 02:04:02;;;;;;;2.28;1.00;;;;;;;;;;5048031;28;20651;-57
2023/12/02 02:06:27;;;;;;;1.42;0.85;;;;;;;;;;5048103;28;20041;-57
2023/12/02 02:08:53;;;;;;;2.08;0.93;;;;;;;;;;5047186;28;20037;-57
2023/12/02 02:11:18;;;;;;;1.73;0.98;;;;;;;;;;5048227;28;20036;-55
2023/12/02 02:13:43;;;;;;;1.73;1.00;;;;;;;;;;5046319;28;20414;-58
2023/12/02 02:16:09;;;;;;;2.00;0.90;;;;;;;;;;5047923;28;21187;-57
2023/12/02 02:18:37;;;;;;;1.52;1.00;;;;;;;;;;5039381;28;20201;-57
2023/12/02 02:21:03;;;;;;;1.55;1.00;;;;;;;;;;5041980;28;20429;-57
2023/12/02 02:23:28;;;;;;;1.35;0.90;;;;;;;;;;5045654;28;20048;-58
2023/12/02 02:25:53;;;;;;;1.13;0.80;;;;;;;;;;5048252;28;20043;-57
2023/12/02 02:28:25;;;;;;;1.70;1.10;;;;;;;;;;5049156;28;20037;-56
2023/12/02 02:30:50;;;;;;;1.30;0.88;;;;;;;;;;5049235;28;20071;-56
2023/12/02 02:33:16;;;;;;;1.67;1.00;;;;;;;;;;5048583;28;20052;-57
2023/12/02 02:35:41;;;;;;;1.63;1.00;;;;;;;;;;5047020;28;20060;-56
2023/12/02 02:38:06;;;;;;;1.42;0.90;;;;;;;;;;5048826;28;20106;-57
2023/12/02 02:40:32;;;;;;;1.38;0.90;;;;;;;;;;5048693;28;20465;-56
2023/12/02 02:42:57;;;;;;;1.35;0.80;;;;;;;;;;5049004;28;20033;-56
2023/12/02 02:45:26;;;;;;;1.30;0.98;;;;;;;;;;5047899;28;20032;-57
2023/12/02 02:47:51;;;;;;;1.50;0.90;;;;;;;;;;5048969;28;20115;-56
2023/12/02 02:50:17;;;;;;;2.22;0.80;;;;;;;;;;5061699;28;20116;-57
2023/12/02 02:52:43;;;;;;;1.67;0.95;;;;;;;;;;5047162;28;20131;-57
2023/12/02 02:55:08;;;;;;;1.50;0.95;;;;;;;;;;5049557;28;20425;-58
2023/12/02 02:57:33;;;;;;;1.63;0.95;;;;;;;;;;5047997;28;20033;-56
2023/12/02 02:59:59;;;;;;;1.67;1.00;;;;;;;;;;5044297;28;20041;-56
2023/12/02 03:02:24;;;;;;;1.45;0.80;;;;;;;;;;5047328;28;20127;-56
2023/12/02 03:04:49;;;;;;;1.50;0.82;;;;;;;;;;5048966;28;20427;-56
2023/12/02 03:07:15;;;;;;;2.83;0.90;;;;;;;;;;5046626;28;20040;-56
2023/12/02 03:09:40;;;;;;;1.40;0.98;;;;;;;;;;5039592;28;20045;-57
2023/12/02 03:12:05;;;;;;;1.50;0.90;;;;;;;;;;5043373;28;20550;-57
2023/12/02 03:14:30;;;;;;;1.65;0.80;;;;;;;;;;5039254;28;20037;-55
2023/12/02 03:16:56;;;;;;;2.30;0.70;;;;;;;;;;5042281;28;20033;-58
2023/12/02 03:19:21;;;;;;;1.77;0.93;;;;;;;;;;5042150;28;20037;-57
2023/12/02 03:21:46;;;;;;;1.77;0.82;;;;;;;;;;5043944;28;20029;-58
2023/12/02 03:24:12;;;;;;;1.67;1.00;;;;;;;;;;5045154;28;20071;-58
2023/12/02 03:26:37;;;;;;;1.38;0.85;;;;;;;;;;5045375;28;20116;-57
2023/12/02 03:29:03;;;;;;;1.20;0.90;;;;;;;;;;5045891;28;20037;-57
2023/12/02 03:31:28;;;;;;;2.00;0.90;;;;;;;;;;5045496;28;20429;-58
2023/12/02 03:33:54;;;;;;;2.10;1.10;;;;;;;;;;5044839;28;20033;-55
2023/12/02 03:36:19;;;;;;;1.80;0.95;;;;;;;;;;5045726;28;20068;-57
2023/12/02 03:38:45;;;;;;;1.88;0.90;;;;;;;;;;5045765;28;20041;-58
2023/12/02 03:41:10;;;;;;;1.48;0.85;;;;;;;;;;5036752;28;20049;-58
2023/12/02 03:43:35;;;;;;;1.38;0.70;;;;;;;;;;5043557;28;20037;-57
2023/12/02 03:46:01;;;;;;;2.00;1.17;;;;;;;;;;5044674;28;20398;-58
2023/12/02 03:48:27;;;;;;;1.23;0.70;;;;;;;;;;5043507;28;20037;-57
2023/12/02 03:50:53;;;;;;;1.08;0.80;;;;;;;;;;5045739;28;20029;-58
2023/12/02 03:53:18;;;;;;;1.83;0.85;;;;;;;;;;5031437;28;20041;-57
2023/12/02 03:55:44;;;;;;;1.58;0.90;;;;;;;;;;5043811;28;20029;-57
2023/12/02 03:58:10;;;;;;;1.50;0.93;;;;;;;;;;5044307;28;20052;-58
2023/12/02 04:00:36;;;;;;;2.15;1.05;;;;;;;;;;5038623;28;20052;-57
2023/12/02 04:03:01;;;;;;;1.23;0.80;;;;;;;;;;5043122;28;20033;-57
2023/12/02 04:05:26;;;;;;;1.42;0.88;;;;;;;;;;5043949;28;20044;-57
2023/12/02 04:07:52;;;;;;;1.42;0.80;;;;;;;;;;5041026;28;20526;-57
2023/12/02 04:10:17;;;;;;;1.38;1.00;;;;;;;;;;5044963;28;20044;-57
2023/12/02 04:12:42;;;;;;;1.70;0.88;;;;;;;;;;5045315;28;20049;-58
2023/12/02 04:15:08;;;;;;;1.83;0.98;;;;;;;;;;5041678;28;20246;-56
2023/12/02 04:17:33;;;;;;;1.55;0.90;;;;;;;;;;5039480;28;20042;-57
2023/12/02 04:19:58;;;;;;;0.88;0.60;;;;;;;;;;5040485;28;20041;-57
2023/12/02 04:22:24;;;;;;;1.40;0.75;;;;;;;;;;5044713;28;20052;-57
2023/12/02 04:24:50;;;;;;;1.10;0.80;;;;;;;;;;5035681;28;20072;-57
2023/12/02 04:27:15;;;;;;;1.50;0.80;;;;;;;;;;5043809;28;20557;-59
2023/12/02 04:29:42;;;;;;;1.17;0.80;;;;;;;;;;5043262;28;20659;-58
2023/12/02 04:32:10;;;;;;;1.25;0.70;;;;;;;;;;5054533;28;20088;-58
2023/12/02 04:34:35;;;;;;;1.73;0.80;;;;;;;;;;5034277;28;20139;-57
2023/12/02 04:37:01;;;;;;;1.55;1.00;;;;;;;;;;5044275;28;20124;-57
2023/12/02 04:39:27;;;;;;;1.77;0.90;;;;;;;;;;5044565;28;20090;-56
2023/12/02 04:41:52;;;;;;;1.70;1.00;;;;;;;;;;5044234;28;20025;-55
2023/12/02 04:44:18;;;;;;;1.00;0.60;;;;;;;;;;5043606;28;20111;-57
2023/12/02 04:46:43;;;;;;;1.17;0.85;;;;;;;;;;5042371;28;20037;-58
2023/12/02 04:49:08;;;;;;;1.55;0.90;;;;;;;;;;5041561;28;20411;-56
2023/12/02 04:51:34;;;;;;;1.70;0.80;;;;;;;;;;5042668;28;20507;-57
2023/12/02 04:53:59;;;;;;;1.38;0.70;;;;;;;;;;5027728;28;20036;-57
2023/12/02 04:56:25;;;;;;;1.38;0.93;;;;;;;;;;5034427;28;20037;-56
2023/12/02 04:58:50;;;;;;;1.00;0.70;;;;;;;;;;5031438;28;20036;-57
2023/12/02 05:01:16;;;;;;;1.45;0.70;;;;;;;;;;5036649;28;20048;-56
2023/12/02 05:03:51;;;;;;;1.08;0.75;;;;;;;;;;5031283;28;20051;-56
2023/12/02 05:06:17;;;;;;;0.98;0.60;;;;;;;;;;5052193;22;20053;-54
2023/12/02 05:08:44;;;;;;;2.08;0.70;;;;;;;;;;5062442;22;20050;-55
2023/12/02 05:11:15;;;;;;;1.15;0.70;;;;;;;;;;5045239;23;20111;-55
2023/12/02 05:13:40;;;;;;;1.17;0.65;;;;;;;;;;5029086;28;20033;-56
2023/12/02 05:16:06;;;;;;;1.80;0.80;;;;;;;;;;5039837;28;20044;-56
2023/12/02 05:18:32;;;;;;;1.70;0.90;;;;;;;;;;5034973;28;20053;-56
2023/12/02 05:20:57;;;;;;;1.20;0.70;;;;;;;;;;5042299;28;20529;-56
2023/12/02 05:23:22;;;;;;;1.08;0.70;;;;;;;;;;5043655;28;20068;-56
2023/12/02 05:25:48;;;;;;;2.55;1.00;;;;;;;;;;5075632;22;20044;-56
2023/12/02 05:28:13;;;;;;;1.17;0.70;;;;;;;;;;5060282;28;20140;-54
2023/12/02 05:30:41;;;;;;;1.50;0.68;;;;;;;;;;5056264;28;20037;-53
2023/12/02 05:33:06;;;;;;;1.58;0.70;;;;;;;;;;5058418;28;20494;-53
2023/12/02 05:35:32;;;;;;;1.38;0.80;;;;;;;;;;5059681;28;20110;-54
2023/12/02 05:37:57;;;;;;;2.03;0.75;;;;;;;;;;5053837;28;20041;-54
2023/12/02 05:40:22;;;;;;;1.30;0.63;;;;;;;;;;5057094;28;20080;-56
2023/12/02 05:42:48;;;;;;;1.02;0.82;;;;;;;;;;5057181;28;20044;-55
2023/12/02 05:45:13;;;;;;;1.48;0.80;;;;;;;;;;5060938;28;20116;-54
2023/12/02 05:47:40;;;;;;;0.90;0.60;;;;;;;;;;5056550;28;20028;-55
2023/12/02 05:50:05;;;;;;;2.08;0.70;;;;;;;;;;5062041;28;20094;-55
2023/12/02 05:52:31;;;;;;;1.40;0.65;;;;;;;;;;5062468;28;20033;-55
2023/12/02 05:54:56;;;;;;;1.42;0.70;;;;;;;;;;5043359;28;20037;-55
2023/12/02 05:57:21;;;;;;;1.50;0.70;;;;;;;;;;5057583;28;20045;-57
2023/12/02 05:59:47;;;;;;;1.33;0.70;;;;;;;;;;5058604;28;20051;-54
2023/12/02 06:02:12;;;;;;;1.20;0.77;;;;;;;;;;5058605;28;20075;-57
2023/12/02 06:04:37;;;;;;;1.52;0.68;;;;;;;;;;5059377;28;20435;-55
2023/12/02 06:07:03;;;;;;;1.50;0.70;;;;;;;;;;5057164;28;20527;-54
2023/12/02 06:09:28;;;;;;;1.15;0.60;;;;;;;;;;5063772;28;20044;-56
2023/12/02 06:11:53;;;;;;;1.33;0.80;;;;;;;;;;5061105;28;20395;-54
2023/12/02 06:14:19;;;;;;;1.33;0.70;;;;;;;;;;5060653;28;20032;-55
2023/12/02 06:16:45;;;;;;;2.15;0.60;;;;;;;;;;5059258;28;20438;-56
2023/12/02 06:19:11;;;;;;;1.92;0.90;;;;;;;;;;5056646;28;20127;-55
2023/12/02 06:21:37;;;;;;;1.95;0.70;;;;;;;;;;5057186;28;20052;-55
2023/12/02 06:24:05;;;;;;;1.63;0.60;;;;;;;;;;5059388;28;20036;-55
2023/12/02 06:26:30;;;;;;;1.75;0.68;;;;;;;;;;5057189;28;20178;-55
2023/12/02 06:28:56;;;;;;;1.42;0.50;;;;;;;;;;5056533;28;20604;-55
2023/12/02 06:31:21;;;;;;;1.70;0.73;;;;;;;;;;5060479;28;20047;-55
2023/12/02 06:33:46;;;;;;;1.55;0.75;;;;;;;;;;5059081;28;20039;-55
2023/12/02 06:36:12;;;;;;;2.55;0.70;;;;;;;;;;5058989;28;20071;-56
2023/12/02 06:38:37;;;;;;;1.85;0.82;;;;;;;;;;5057819;28;20035;-56
2023/12/02 06:41:03;;;;;;;1.20;0.70;;;;;;;;;;5051875;28;20529;-56
2023/12/02 06:43:28;;;;;;;2.08;0.50;;;;;;;;;;5060229;28;20514;-53
2023/12/02 06:45:54;;;;;;;2.22;0.50;;;;;;;;;;5057699;28;20039;-54
2023/12/02 06:48:19;;;;;;;1.48;0.70;;;;;;;;;;5057974;28;20051;-54
2023/12/02 06:50:44;;;;;;;1.58;0.70;;;;;;;;;;5061925;28;22093;-54
2023/12/02 06:53:12;;;;;;;1.33;0.70;;;;;;;;;;5063796;28;20116;-55
2023/12/02 06:55:37;;;;;;;1.58;0.50;;;;;;;;;;5061029;28;20043;-56
2023/12/02 06:58:03;;;;;;;2.65;0.70;;;;;;;;;;5059790;28;20484;-57
2023/12/02 07:00:28;;;;;;;1.23;0.70;;;;;;;;;;5063772;28;20120;-55
2023/12/02 07:02:54;;;;;;;1.55;0.63;;;;;;;;;;5058506;28;20041;-56
2023/12/02 07:05:19;;;;;;;2.67;0.80;;;;;;;;;;5061681;28;20484;-55
2023/12/02 07:07:45;;;;;;;1.42;0.60;;;;;;;;;;5060314;28;20056;-57
2023/12/02 07:10:10;;;;;;;2.83;0.70;;;;;;;;;;5059737;28;20033;-55
2023/12/02 07:12:36;;;;;;;3.25;0.85;;;;;;;;;;5058986;28;20040;-57
2023/12/02 07:15:06;;;;;;;2.53;0.60;;;;;;;;;;5061463;28;20040;-57
2023/12/02 07:17:31;;;;;;;1.27;0.55;;;;;;;;;;5051706;28;20558;-55
2023/12/02 07:19:57;;;;;;;2.83;0.60;;;;;;;;;;5072726;28;20140;-56
2023/12/02 07:22:24;;;;;;;2.15;0.70;;;;;;;;;;5060713;28;20040;-56
2023/12/02 07:24:50;;;;;;;1.08;0.40;;;;;;;;;;5064164;28;20039;-55
2023/12/02 07:27:15;;;;;;;1.58;0.80;;;;;;;;;;5063547;28;20296;-57
2023/12/02 07:29:40;;;;;;;2.28;0.77;;;;;;;;;;5060544;28;20115;-56
2023/12/02 07:32:05;;;;;;;0.82;0.45;;;;;;;;;;5062952;28;20130;-57
2023/12/02 07:34:33;;;;;;;0.95;0.50;;;;;;;;;;5062363;28;20501;-56
2023/12/02 07:36:58;;;;;;;1.63;0.60;;;;;;;;;;5060183;28;20028;-56
2023/12/02 07:39:24;;;;;;;1.40;0.60;;;;;;;;;;5059972;28;20223;-56
2023/12/02 07:41:49;;;;;;;1.90;0.60;;;;;;;;;;5059466;28;20067;-55
2023/12/02 07:44:15;;;;;;;1.10;0.60;;;;;;;;;;5059465;28;20032;-57
2023/12/02 07:46:43;;;;;;;1.02;0.60;;;;;;;;;;5062034;28;20135;-57
2023/12/02 07:49:08;;;;;;;1.58;0.57;;;;;;;;;;5059559;28;20040;-56
2023/12/02 07:51:34;;;;;;;1.02;0.50;;;;;;;;;;5063109;28;20128;-55
2023/12/02 07:53:59;;;;;;;0.93;0.50;;;;;;;;;;5061222;28;20055;-55
2023/12/02 07:56:24;;;;;;;1.85;0.73;;;;;;;;;;5059044;28;20033;-58
2023/12/02 07:58:50;;;;;;;1.98;0.68;;;;;;;;;;5062031;28;20056;-55
2023/12/02 08:01:15;;;;;;;1.35;0.60;;;;;;;;;;5060574;28;20048;-57
2023/12/02 08:03:40;;;;;;;1.55;0.60;;;;;;;;;;5062875;28;20032;-55
2023/12/02 08:06:08;;;;;;;0.82;0.52;;;;;;;;;;5060527;28;20039;-57
2023/12/02 08:08:36;;;;;;;1.50;0.68;;;;;;;;;;5063213;28;20044;-55
2023/12/02 08:11:02;;;;;;;1.33;0.70;;;;;;;;;;5062162;28;20043;-55
2023/12/02 08:13:27;;;;;;;1.38;0.60;;;;;;;;;;5060975;28;20494;-55
2023/12/02 08:15:55;;;;;;;0.70;0.50;;;;;;;;;;5062115;28;20084;-56
2023/12/02 08:18:26;;;;;;;2.15;0.70;;;;;;;;;;5061826;28;20036;-55
2023/12/02 08:20:51;;;;;;;1.10;0.60;;;;;;;;;;5060641;28;20174;-56
2023/12/02 08:23:17;;;;;;;1.05;0.68;;;;;;;;;;5062795;28;20972;-56
2023/12/02 08:25:42;;;;;;;1.13;0.70;;;;;;;;;;5060693;28;20089;-56
2023/12/02 08:28:07;;;;;;;1.27;0.57;;;;;;;;;;5061389;28;20028;-57
2023/12/02 08:30:33;;;;;;;1.67;0.40;;;;;;;;;;5062726;28;20021;-57
2023/12/02 08:32:58;;;;;;;1.40;0.60;;;;;;;;;;5084451;28;20450;-56
2023/12/02 08:35:26;;;;;;;1.27;0.55;;;;;;;;;;5069321;28;20013;-56
2023/12/02 08:37:51;;;;;;;0.93;0.60;;;;;;;;;;5066502;28;20450;-57
2023/12/02 08:40:17;;;;;;;1.88;0.90;;;;;;;;;;5053692;28;20036;-56
2023/12/02 08:42:42;;;;;;;3.42;0.73;;;;;;;;;;5081229;28;20081;-57
2023/12/02 08:45:08;;;;;;;1.67;0.70;;;;;;;;;;5072393;28;20634;-57
2023/12/02 08:47:34;;;;;;;1.50;0.50;;;;;;;;;;5073445;28;20039;-56
2023/12/02 08:50:01;;;;;;;1.45;0.60;;;;;;;;;;5070238;28;20059;-58
2023/12/02 08:52:26;;;;;;;1.65;0.70;;;;;;;;;;5064862;28;20516;-57
2023/12/02 08:54:51;;;;;;;1.67;0.60;;;;;;;;;;5066572;28;20105;-56
2023/12/02 08:57:19;;;;;;;1.55;0.60;;;;;;;;;;5065558;28;20044;-59
2023/12/02 08:59:44;;;;;;;1.60;0.70;;;;;;;;;;5064503;28;20423;-57
2023/12/02 09:02:09;;;;;;;1.30;0.70;;;;;;;;;;5066992;28;20094;-57
2023/12/02 09:04:35;;;;;;;1.30;0.70;;;;;;;;;;5067780;28;20110;-56
2023/12/02 09:07:00;;;;;;;1.45;0.68;;;;;;;;;;5068400;28;20032;-57
2023/12/02 09:09:27;;;;;;;2.10;0.60;;;;;;;;;;5064408;28;20680;-58
2023/12/02 09:11:53;;;;;;;0.68;0.47;;;;;;;;;;5075468;28;20048;-56
2023/12/02 09:14:18;;;;;;;1.63;0.80;;;;;;;;;;5067791;28;20995;-57
2023/12/02 09:16:47;;;;;;;1.17;0.68;;;;;;;;;;5053853;28;20028;-57
2023/12/02 09:19:30;;;;;;;1.52;0.70;;;;;;;;;;5065418;28;20173;-57
2023/12/02 09:21:56;;;;;;;1.08;0.60;;;;;;;;;;5066564;28;20072;-59
2023/12/02 09:24:37;;;;;;;1.05;0.55;;;;;;;;;;5065682;28;20514;-57
2023/12/02 09:27:07;;;;;;;1.60;0.77;;;;;;;;;;5069417;28;20070;-57
2023/12/02 09:29:40;;;;;;;1.50;0.73;;;;;;;;;;5079084;28;20133;-57
2023/12/02 09:32:26;;;;;;;1.33;0.77;;;;;;;;;;5094685;28;20032;-57
2023/12/02 09:34:55;;;;;;;0.77;0.50;;;;;;;;;;5065932;28;20036;-57
2023/12/02 09:37:29;;;;;;;2.65;0.80;;;;;;;;;;5064256;28;20036;-56
2023/12/02 09:40:01;;;;;;;1.42;0.98;;;;;;;;;;5047057;28;20083;-57
2023/12/02 09:42:26;;;;;;;1.15;0.60;;;;;;;;;;5065321;28;20040;-55
2023/12/02 09:44:51;;;;;;;8.25;1.35;;;;;;;;;;5066019;28;20580;-55
2023/12/02 09:47:23;;;;;;;5.28;1.67;;;;;;;;;;5066083;28;20048;-55
2023/12/02 09:49:49;;;;;;;1.38;0.90;;;;;;;;;;5063408;28;20032;-56
2023/12/02 09:52:33;;;;;;;2.03;0.93;;;;;;;;;;5064161;28;20871;-55
2023/12/02 09:55:08;;;;;;;2.42;0.88;;;;;;;;;;5047762;28;20099;-57
2023/12/02 09:57:36;;;;;;;1.60;0.90;;;;;;;;;;5055353;28;20035;-55
2023/12/02 10:00:12;;;;;;;2.92;1.00;;;;;;;;;;5034313;28;20085;-56
2023/12/02 10:02:56;;;;;;;1.70;0.95;;;;;;;;;;5050620;28;20047;-57
2023/12/02 10:05:21;;;;;;;2.30;1.00;;;;;;;;;;5051034;28;20129;-55
2023/12/02 10:08:05;;;;;;;3.17;1.23;;;;;;;;;;5059085;28;20071;-58
2023/12/02 10:10:38;;;;;;;1.73;1.00;;;;;;;;;;5058194;28;20036;-57
2023/12/02 10:13:12;;;;;;;2.85;1.08;;;;;;;;;;5056844;28;20032;-57
2023/12/02 10:15:37;;;;;;;3.20;0.93;;;;;;;;;;5059546;28;20048;-57
2023/12/02 10:18:10;;;;;;;2.50;0.90;;;;;;;;;;5059109;28;20052;-56
2023/12/02 10:20:36;;;;;;;2.83;1.00;;;;;;;;;;5056381;28;20048;-56
2023/12/02 10:23:10;;;;;;;1.67;0.85;;;;;;;;;;5058313;28;20048;-57
2023/12/02 10:25:42;;;;;;;2.53;0.95;;;;;;;;;;5061999;28;20592;-58
2023/12/02 10:28:13;;;;;;;3.10;1.20;;;;;;;;;;5063548;28;20053;-57
2023/12/02 10:30:46;;;;;;;2.33;1.13;;;;;;;;;;5062194;28;20502;-57
2023/12/02 10:33:24;;;;;;;3.08;1.23;;;;;;;;;;5077564;28;20048;-55
2023/12/02 10:35:49;;;;;;;2.08;0.98;;;;;;;;;;5065468;28;20040;-57
2023/12/02 10:38:33;;;;;;;3.03;0.88;;;;;;;;;;5062059;28;20478;-56
2023/12/02 10:41:01;;;;;;;3.28;1.20;;;;;;;;;;5061165;28;20378;-56
2023/12/02 10:43:30;;;;;;;2.33;1.20;;;;;;;;;;5059988;28;20111;-56
2023/12/02 10:45:55;;;;;;;2.72;1.00;;;;;;;;;;5063771;28;20032;-56
2023/12/02 10:48:20;;;;;;;3.13;1.15;;;;;;;;;;5061470;28;20418;-56
2023/12/02 10:50:46;;;;;;;3.22;1.10;;;;;;;;;;5063105;28;20016;-56
2023/12/02 10:53:12;;;;;;;2.40;1.00;;;;;;;;;;5064608;28;20473;-56
2023/12/02 10:55:37;;;;;;;2.67;1.30;;;;;;;;;;5046330;28;20044;-56
2023/12/02 10:58:03;;;;;;;4.65;1.30;;;;;;;;;;5059947;28;20026;-57
2023/12/02 11:00:29;;;;;;;2.35;0.90;;;;;;;;;;5060345;28;20111;-56
2023/12/02 11:03:00;;;;;;;2.72;1.17;;;;;;;;;;5060655;28;20113;-56
2023/12/02 11:05:28;;;;;;;2.83;1.05;;;;;;;;;;5062570;28;20044;-56
2023/12/02 11:07:54;;;;;;;2.03;1.08;;;;;;;;;;5064282;28;20094;-56
2023/12/02 11:10:34;;;;;;;3.35;1.13;;;;;;;;;;5060969;28;20048;-58
2023/12/02 11:13:02;;;;;;;2.30;0.88;;;;;;;;;;5062080;28;20128;-56
2023/12/02 11:15:27;;;;;;;2.53;1.20;;;;;;;;;;5060490;28;20036;-56
2023/12/02 11:17:59;;;;;;;1.95;1.00;;;;;;;;;;5060163;28;20034;-56
2023/12/02 11:20:42;;;;;;;2.20;1.08;;;;;;;;;;5059286;28;20127;-55
2023/12/02 11:23:11;;;;;;;1.90;1.00;;;;;;;;;;5057037;28;20044;-56
2023/12/02 11:25:59;;;;;;;2.05;0.80;;;;;;;;;;5052762;28;20033;-58
2023/12/02 11:28:27;;;;;;;1.80;1.00;;;;;;;;;;5054023;28;20041;-58
2023/12/02 11:31:16;;;;;;;2.35;1.20;;;;;;;;;;5054295;28;20080;-56
2023/12/02 11:33:50;;;;;;;2.20;1.20;;;;;;;;;;5053472;28;20029;-57
2023/12/02 11:36:21;;;;;;;1.83;0.90;;;;;;;;;;5046970;28;20051;-57
2023/12/02 11:38:55;;;;;;;2.45;1.25;;;;;;;;;;5049453;28;20463;-58
2023/12/02 11:41:25;;;;;;;2.22;1.17;;;;;;;;;;5054647;28;20056;-57
2023/12/02 11:43:58;;;;;;;9.32;2.83;;;;;;;;;;5058247;28;20050;-56
2023/12/02 11:46:25;;;;;;;4.35;1.20;;;;;;;;;;5057430;28;20036;-57
2023/12/02 11:48:50;;;;;;;2.70;1.02;;;;;;;;;;5052726;28;20082;-56
2023/12/02 11:51:15;;;;;;;3.10;1.10;;;;;;;;;;5059057;28;20028;-55
2023/12/02 11:53:59;;;;;;;4.05;1.20;;;;;;;;;;5057542;28;20027;-58
2023/12/02 11:56:25;;;;;;;3.35;0.90;;;;;;;;;;5058319;28;20115;-56
2023/12/02 11:58:51;;;;;;;2.05;1.00;;;;;;;;;;5059018;28;20561;-56
2023/12/02 12:01:34;;;;;;;2.58;1.05;;;;;;;;;;5056550;28;20055;-58
2023/12/02 12:04:00;;;;;;;2.10;1.10;;;;;;;;;;5050587;28;20462;-56
2023/12/02 12:06:31;;;;;;;2.83;1.15;;;;;;;;;;5056911;28;20113;-55
2023/12/02 12:09:03;;;;;;;2.22;1.00;;;;;;;;;;5041089;28;20040;-55
2023/12/02 12:11:28;;;;;;;1.60;0.85;;;;;;;;;;5053887;28;20040;-55
2023/12/02 12:13:53;;;;;;;2.17;1.23;;;;;;;;;;5057925;28;20079;-56
2023/12/02 12:16:19;;;;;;;2.38;0.90;;;;;;;;;;5054804;28;20039;-56
2023/12/02 12:18:44;;;;;;;1.85;1.00;;;;;;;;;;5058232;28;20536;-56
2023/12/02 12:21:09;;;;;;;2.65;0.95;;;;;;;;;;5055156;28;20885;-55
2023/12/02 12:23:35;;;;;;;1.85;0.93;;;;;;;;;;5056691;28;20024;-56
2023/12/02 12:26:00;;;;;;;1.92;1.00;;;;;;;;;;5057536;28;20128;-56
2023/12/02 12:28:25;;;;;;;2.85;1.15;;;;;;;;;;5041309;28;20032;-55
2023/12/02 12:30:51;;;;;;;1.80;1.00;;;;;;;;;;5058348;28;20434;-55
2023/12/02 12:33:17;;;;;;;1.85;1.05;;;;;;;;;;5057496;28;20512;-56
2023/12/02 12:35:43;;;;;;;1.80;0.80;;;;;;;;;;5058080;28;20040;-56
2023/12/02 12:38:11;;;;;;;2.10;1.30;;;;;;;;;;5057266;28;20608;-55
2023/12/02 12:40:37;;;;;;;1.67;0.93;;;;;;;;;;5060650;28;20040;-56
2023/12/02 12:43:02;;;;;;;2.90;1.10;;;;;;;;;;5056713;28;20052;-54
2023/12/02 12:45:29;;;;;;;3.90;1.02;;;;;;;;;;5056805;28;20124;-55
2023/12/02 12:47:55;;;;;;;1.50;0.80;;;;;;;;;;5057936;28;20047;-55
2023/12/02 12:50:21;;;;;;;1.58;0.77;;;;;;;;;;5055700;28;20147;-55
2023/12/02 12:52:50;;;;;;;3.22;1.10;;;;;;;;;;5056202;28;20142;-56
2023/12/02 12:55:20;;;;;;;2.40;1.00;;;;;;;;;;5059547;28;20525;-55
2023/12/02 12:57:51;;;;;;;1.65;0.90;;;;;;;;;;5056589;28;20059;-55
2023/12/02 13:00:17;;;;;;;1.67;1.00;;;;;;;;;;5057068;28;20044;-55
2023/12/02 13:02:51;;;;;;;2.17;0.90;;;;;;;;;;5058124;28;20047;-55
2023/12/02 13:05:17;;;;;;;2.63;1.20;;;;;;;;;;5057771;28;20059;-54
2023/12/02 13:07:49;;;;;;;3.03;0.80;;;;;;;;;;5058837;28;20979;-56
2023/12/02 13:10:14;;;;;;;1.90;0.90;;;;;;;;;;5057490;28;20033;-57
2023/12/02 13:12:40;;;;;;;2.03;0.98;;;;;;;;;;5038033;28;20047;-56
2023/12/02 13:15:06;;;;;;;4.82;0.95;;;;;;;;;;5055131;28;20063;-56
2023/12/02 13:17:36;;;;;;;2.53;1.27;;;;;;;;;;5037426;28;20166;-56
2023/12/02 13:20:02;;;;;;;;;;;;;;;;;;5056721;28;20102;-56
2023/12/02 13:22:27;;;;;;;2.15;1.00;;;;;;;;;;5056000;28;20050;-57
2023/12/02 13:25:02;;;;;;;2.15;1.08;;;;;;;;;;5055839;28;20564;-57
2023/12/02 13:27:36;;;;;;;1.33;0.77;;;;;;;;;;5055688;28;20044;-55
2023/12/02 13:30:05;;;;;;;2.15;1.02;;;;;;;;;;5056235;28;20096;-56
2023/12/02 13:32:31;;;;;;;1.90;1.00;;;;;;;;;;5053044;28;20033;-57
2023/12/02 13:35:01;;;;;;;2.55;1.00;;;;;;;;;;5054736;28;20350;-58
2023/12/02 13:37:30;;;;;;;1.77;0.93;;;;;;;;;;5057243;28;20032;-57
2023/12/02 13:39:55;;;;;;;2.53;0.93;;;;;;;;;;5056475;28;20499;-56
2023/12/02 13:42:23;;;;;;;2.70;1.05;;;;;;;;;;5056602;28;20031;-57
2023/12/02 13:44:49;;;;;;;1.92;0.70;;;;;;;;;;5039517;28;20566;-57
2023/12/02 13:47:26;;;;;;;1.55;0.77;;;;;;;;;;5057485;28;20020;-56
2023/12/02 13:49:57;;;;;;;2.38;1.17;;;;;;;;;;5057994;28;20048;-56
2023/12/02 13:52:32;;;;;;;2.03;1.00;;;;;;;;;;5054466;28;20064;-57
2023/12/02 13:55:16;;;;;;;2.03;1.05;;;;;;;;;;5071547;28;20063;-56
2023/12/02 13:58:00;;;;;;;2.22;0.90;;;;;;;;;;5056433;28;20062;-62
2023/12/02 14:00:48;;;;;;;1.90;0.73;;;;;;;;;;5056522;28;20085;-57
2023/12/02 14:03:29;;;;;;;1.73;1.00;;;;;;;;;;5053458;28;20475;-56
2023/12/02 14:05:58;;;;;;;2.55;1.00;;;;;;;;;;5053915;28;20052;-57
2023/12/02 14:08:23;;;;;;;1.83;0.90;;;;;;;;;;5056365;28;20047;-56
2023/12/02 14:10:49;;;;;;;1.10;0.70;;;;;;;;;;5055787;28;20028;-57
2023/12/02 14:13:19;;;;;;;2.10;1.00;;;;;;;;;;5039768;28;20047;-57
2023/12/02 14:15:50;;;;;;;1.90;0.80;;;;;;;;;;5037744;28;20029;-56
2023/12/02 14:18:34;;;;;;;4.43;0.98;;;;;;;;;;5048402;28;20090;-57
2023/12/02 14:21:11;;;;;;;1.63;1.00;;;;;;;;;;5053879;28;21902;-55
2023/12/02 14:23:44;;;;;;;1.83;0.85;;;;;;;;;;5054596;28;20584;-55
2023/12/02 14:26:09;;;;;;;1.73;0.90;;;;;;;;;;5055409;28;20044;-56
2023/12/02 14:29:03;;;;;;;3.17;0.80;;;;;;;;;;5055316;28;20909;-56
2023/12/02 14:31:52;;;;;;;1.80;0.90;;;;;;;;;;5001398;28;20046;-58
2023/12/02 14:34:30;;;;;;;1.77;0.85;;;;;;;;;;5053232;28;20548;-57
2023/12/02 14:36:55;;;;;;;2.53;1.00;;;;;;;;;;5055544;28;20044;-56
2023/12/02 14:39:21;;;;;;;1.70;0.90;;;;;;;;;;5053099;28;20567;-56
2023/12/02 14:41:47;;;;;;;2.63;0.73;;;;;;;;;;5055202;28;20052;-57
2023/12/02 14:44:31;;;;;;;2.58;1.05;;;;;;;;;;5053387;28;20052;-56